Time;durP1;ratioP1;P1;durP2;ratioP2;P2;SDS_P1;SDS_P2;PMS_P1;PMS_P2;Temp;Humidity;BMP_temperature;BMP_pressure;BME280_temperature;BME280_humidity;BME280_pressure;Samples;Min_cycle;Max_cycle;Signal;HPM_P1;HPM_P2
2022/07/30 00:01:16;;;;;;;3.97;1.27;;;;;;;18.88;73.63;92962.56;2071929;69;20152;-75
2022/07/30 00:03:42;;;;;;;1.63;1.20;;;;;;;18.89;73.10;92964.00;2071855;69;20147;-75
2022/07/30 00:06:08;;;;;;;3.63;1.50;;;;;;;18.96;72.37;92959.22;2071293;69;20141;-76
2022/07/30 00:08:36;;;;;;;4.18;1.27;;;;;;;18.84;73.43;92962.41;2068322;69;20167;-75
2022/07/30 00:11:04;;;;;;;1.67;1.20;;;;;;;18.96;71.41;92956.38;2065573;69;20136;-75
2022/07/30 00:13:33;;;;;;;2.78;1.40;;;;;;;18.84;73.02;92953.84;2071904;69;20233;-76
2022/07/30 00:16:07;;;;;;;2.50;1.38;;;;;;;18.84;72.72;92945.28;2071852;69;20128;-76
2022/07/30 00:18:35;;;;;;;1.75;1.27;;;;;;;18.92;71.88;92944.81;2071914;69;20160;-76
2022/07/30 00:21:02;;;;;;;5.10;1.10;;;;;;;18.71;73.35;92947.00;2068196;69;20151;-75
2022/07/30 00:23:28;;;;;;;3.15;1.10;;;;;;;18.90;70.63;92945.50;2071923;69;20155;-72
2022/07/30 00:25:55;;;;;;;2.10;1.02;;;;;;;18.83;71.43;92943.84;2071604;69;20155;-74
2022/07/30 00:28:21;;;;;;;2.92;1.15;;;;;;;18.76;72.61;92948.59;2071336;69;20236;-74
2022/07/30 00:30:46;;;;;;;5.10;1.60;;;;;;;18.60;73.23;92945.16;2067615;69;20220;-74
2022/07/30 00:33:12;;;;;;;2.47;1.20;;;;;;;18.78;71.31;92953.63;2067797;69;20175;-74
2022/07/30 00:35:38;;;;;;;4.95;1.48;;;;;;;18.70;72.80;92956.22;2071353;69;20152;-74
2022/07/30 00:38:04;;;;;;;1.75;1.35;;;;;;;18.62;73.13;92958.75;2067655;69;20459;-74
2022/07/30 00:40:29;;;;;;;2.08;1.40;;;;;;;18.62;72.56;92961.59;2067950;69;20171;-74
2022/07/30 00:42:55;;;;;;;2.90;1.40;;;;;;;18.71;71.75;92954.81;2067787;69;20145;-74
2022/07/30 00:45:21;;;;;;;1.70;1.30;;;;;;;18.60;72.28;92958.66;2071462;69;20195;-74
2022/07/30 00:47:46;;;;;;;3.83;1.23;;;;;;;18.48;72.85;92968.25;2071205;69;20555;-72
2022/07/30 00:50:13;;;;;;;6.10;1.50;;;;;;;18.41;73.15;92960.13;2071290;69;20164;-74
2022/07/30 00:52:40;;;;;;;3.83;1.33;;;;;;;18.41;72.98;92968.69;2071186;69;20232;-74
2022/07/30 00:55:09;;;;;;;7.45;1.60;;;;;;;18.35;72.54;92960.66;2071306;69;20180;-74
2022/07/30 00:57:35;;;;;;;2.92;1.10;;;;;;;18.16;73.77;92961.38;2067824;69;20175;-74
2022/07/30 01:00:01;;;;;;;2.85;1.15;;;;;;;18.27;72.44;92968.91;2067839;69;20198;-74
2022/07/30 01:02:26;;;;;;;7.20;1.50;;;;;;;18.16;72.82;92967.09;2071151;69;20167;-74
2022/07/30 01:04:52;;;;;;;6.65;1.20;;;;;;;18.21;72.33;92972.28;2067756;69;20188;-73
2022/07/30 01:07:18;;;;;;;1.80;1.35;;;;;;;18.12;72.90;92970.50;2071212;69;20160;-74
2022/07/30 01:09:43;;;;;;;2.15;1.25;;;;;;;18.11;72.56;92962.63;2071266;69;20602;-74
2022/07/30 01:12:13;;;;;;;2.40;1.50;;;;;;;18.13;72.26;92971.22;2070986;69;20518;-76
2022/07/30 01:14:39;;;;;;;2.95;1.15;;;;;;;18.13;72.32;92971.97;2067935;69;20597;-74
2022/07/30 01:17:05;;;;;;;2.80;0.98;;;;;;;18.00;73.12;92967.94;2068222;69;20140;-76
2022/07/30 01:19:54;;;;;;;1.50;1.30;;;;;;;17.89;73.62;92974.63;2071196;69;20560;-75
2022/07/30 01:22:29;;;;;;;2.25;1.08;;;;;;;18.09;71.78;92965.38;2066487;69;20148;-74
2022/07/30 01:25:03;;;;;;;3.67;1.30;;;;;;;17.93;72.95;92971.94;2068024;69;20213;-75
2022/07/30 01:27:39;;;;;;;2.65;1.42;;;;;;;17.93;73.14;92969.09;2067947;69;20136;-75
2022/07/30 01:30:07;;;;;;;1.88;1.30;;;;;;;18.02;72.79;92973.72;2068118;69;20554;-75
2022/07/30 01:32:37;;;;;;;4.13;1.17;;;;;;;18.02;72.58;92973.72;2067805;69;20172;-75
2022/07/30 01:35:06;;;;;;;3.67;1.45;;;;;;;17.97;73.47;92974.22;2067945;69;20182;-75
2022/07/30 01:37:33;;;;;;;3.20;1.42;;;;;;;17.97;73.41;92979.91;2067834;69;20241;-75
2022/07/30 01:39:59;;;;;;;2.25;1.40;;;;;;;18.03;72.38;92980.88;2071272;69;20140;-75
2022/07/30 01:42:28;;;;;;;1.20;1.10;;;;;;;17.91;73.67;92983.25;2067883;69;20146;-75
2022/07/30 01:44:56;;;;;;;6.38;1.60;;;;;;;18.02;73.19;92981.53;2067998;69;20155;-75
2022/07/30 01:47:24;;;;;;;3.72;1.67;;;;;;;17.96;72.63;92981.28;2062232;69;20175;-75
2022/07/30 01:49:53;;;;;;;3.05;1.60;;;;;;;18.02;73.17;92968.00;2071203;69;20598;-75
2022/07/30 01:52:22;;;;;;;2.90;1.45;;;;;;;18.08;72.49;92978.16;2067838;69;20629;-74
2022/07/30 01:54:50;;;;;;;4.18;1.60;;;;;;;18.09;72.04;92973.94;2071213;69;20184;-75
2022/07/30 01:57:19;;;;;;;2.88;1.55;;;;;;;18.06;71.67;92969.56;2068002;69;20221;-75
2022/07/30 01:59:49;;;;;;;3.28;1.48;;;;;;;18.02;73.05;92970.13;2064522;69;20152;-75
2022/07/30 02:02:15;;;;;;;2.85;1.60;;;;;;;18.04;71.96;92967.34;2064424;69;20149;-75
2022/07/30 02:04:40;;;;;;;3.38;1.73;;;;;;;18.08;72.33;92975.31;2061764;69;20206;-75
2022/07/30 02:07:21;;;;;;;4.70;1.80;;;;;;;18.08;72.51;92978.91;2064526;69;20235;-75
2022/07/30 02:10:03;;;;;;;5.38;1.90;;;;;;;17.72;73.89;92984.63;2070995;69;20148;-75
2022/07/30 02:12:47;;;;;;;4.90;2.10;;;;;;;17.95;73.16;92976.97;2067247;69;20160;-75
2022/07/30 02:15:16;;;;;;;6.72;2.30;;;;;;;17.94;72.30;92981.94;2067314;69;20292;-75
2022/07/30 02:18:15;;;;;;;3.45;2.20;;;;;;;17.96;72.59;92981.28;2067632;69;20298;-75
2022/07/30 02:21:01;;;;;;;2.80;2.15;;;;;;;18.08;71.66;92973.19;2067137;69;20259;-75
2022/07/30 02:23:28;;;;;;;4.72;2.47;;;;;;;17.95;73.36;92976.97;2067225;69;20215;-75
2022/07/30 02:25:58;;;;;;;4.40;2.30;;;;;;;17.95;73.87;92974.13;2067219;69;20236;-75
2022/07/30 02:28:26;;;;;;;4.80;1.95;;;;;;;18.05;72.39;92977.34;2067111;69;20596;-75
2022/07/30 02:30:56;;;;;;;4.10;1.98;;;;;;;18.08;71.82;92981.75;2067244;69;20164;-73
2022/07/30 02:33:27;;;;;;;3.92;2.10;;;;;;;18.04;73.01;92979.47;2067016;69;20237;-73
2022/07/30 02:35:55;;;;;;;2.92;1.83;;;;;;;18.07;72.39;92976.72;2067214;69;20270;-73
2022/07/30 02:38:24;;;;;;;5.00;2.03;;;;;;;17.95;73.97;92971.28;2067076;69;20235;-75
2022/07/30 02:40:51;;;;;;;3.85;1.90;;;;;;;18.05;73.10;92983.03;2067930;69;20216;-75
2022/07/30 02:43:20;;;;;;;2.92;1.90;;;;;;;17.99;72.74;92975.00;2067233;69;20171;-74
2022/07/30 02:45:47;;;;;;;8.20;2.22;;;;;;;17.94;73.59;92981.94;2067915;69;20144;-75
2022/07/30 02:48:15;;;;;;;4.03;1.80;;;;;;;18.11;71.07;92977.59;2067158;69;20184;-75
2022/07/30 02:50:42;;;;;;;3.10;1.83;;;;;;;18.02;73.30;92984.38;2067926;69;20151;-75
2022/07/30 02:53:13;;;;;;;3.78;1.98;;;;;;;18.01;71.30;92977.94;2067847;69;20151;-75
2022/07/30 02:55:41;;;;;;;2.90;1.98;;;;;;;17.99;73.10;92988.53;2068263;69;20187;-75
2022/07/30 02:58:09;;;;;;;4.95;2.00;;;;;;;18.01;71.48;92991.47;2067668;69;20173;-75
2022/07/30 03:00:36;;;;;;;4.75;1.95;;;;;;;17.80;73.34;92984.25;2065038;69;20236;-74
2022/07/30 03:03:06;;;;;;;4.32;1.90;;;;;;;17.90;72.36;92983.91;2067637;69;20155;-75
2022/07/30 03:05:32;;;;;;;3.25;2.05;;;;;;;17.83;70.96;92985.06;2067822;69;20184;-75
2022/07/30 03:07:59;;;;;;;3.75;2.20;;;;;;;17.94;70.32;92973.41;2067542;69;20184;-75
2022/07/30 03:10:26;;;;;;;5.10;2.30;;;;;;;17.73;71.73;92983.28;2068387;69;20497;-75
2022/07/30 03:12:53;;;;;;;5.07;2.30;;;;;;;17.95;69.89;92976.97;2067542;69;20151;-75
2022/07/30 03:15:19;;;;;;;4.97;2.30;;;;;;;17.93;71.06;92969.09;2068199;69;20176;-75
2022/07/30 03:17:49;;;;;;;7.03;2.35;;;;;;;17.90;70.89;92981.06;2067614;69;20175;-75
2022/07/30 03:20:17;;;;;;;6.85;2.85;;;;;;;17.84;71.37;92978.72;2068319;69;20184;-75
2022/07/30 03:22:47;;;;;;;3.08;2.30;;;;;;;17.79;72.91;92977.09;2068227;69;20493;-75
2022/07/30 03:25:20;;;;;;;6.70;2.45;;;;;;;17.86;72.09;92978.78;2067549;69;20598;-75
2022/07/30 03:27:47;;;;;;;3.17;2.17;;;;;;;17.89;71.82;92982.44;2067543;69;20152;-75
2022/07/30 03:30:13;;;;;;;3.35;2.22;;;;;;;17.89;70.91;92974.63;2067592;69;20159;-73
2022/07/30 03:32:39;;;;;;;4.78;2.17;;;;;;;17.83;71.88;92971.56;2067418;69;20234;-74
2022/07/30 03:35:07;;;;;;;4.70;2.47;;;;;;;17.67;73.22;92976.59;2068160;69;20156;-74
2022/07/30 03:37:38;;;;;;;4.65;2.35;;;;;;;17.85;71.62;92976.59;2067389;69;20206;-74
2022/07/30 03:40:05;;;;;;;5.43;2.20;;;;;;;17.78;72.51;92979.22;2067688;69;20235;-73
2022/07/30 03:42:32;;;;;;;3.95;2.45;;;;;;;17.68;73.24;92972.34;2067610;69;20646;-73
2022/07/30 03:45:00;;;;;;;3.63;2.13;;;;;;;17.61;72.99;92967.81;2067718;69;20137;-74
2022/07/30 03:47:27;;;;;;;3.22;2.30;;;;;;;17.71;73.06;92971.06;2068022;69;20152;-74
2022/07/30 03:49:52;;;;;;;4.57;2.20;;;;;;;17.82;70.56;92963.66;2067593;69;20470;-74
2022/07/30 03:52:19;;;;;;;3.15;2.20;;;;;;;17.58;73.35;92971.97;2068421;69;20151;-73
2022/07/30 03:54:46;;;;;;;4.05;2.53;;;;;;;17.48;72.53;92963.75;2067513;69;20143;-73
2022/07/30 03:57:35;;;;;;;4.43;2.45;;;;;;;17.73;70.40;92969.06;2064392;69;20258;-74
2022/07/30 04:00:05;;;;;;;2.92;2.25;;;;;;;17.62;72.79;92969.28;2067578;69;20235;-74
2022/07/30 04:02:45;;;;;;;6.13;2.78;;;;;;;17.44;72.98;92966.44;2068188;69;20141;-74
2022/07/30 04:05:26;;;;;;;4.25;2.38;;;;;;;17.83;71.03;92980.09;2068325;69;20140;-74
2022/07/30 04:07:54;;;;;;;5.22;2.20;;;;;;;17.68;71.26;92975.19;2067459;69;20580;-74
2022/07/30 04:10:22;;;;;;;4.85;2.55;;;;;;;17.56;72.52;92980.44;2067690;69;20147;-74
2022/07/30 04:12:57;;;;;;;4.38;2.10;;;;;;;17.53;72.86;92974.66;2070211;69;20144;-74
2022/07/30 04:15:22;;;;;;;5.05;2.65;;;;;;;17.57;72.95;92973.34;2068036;69;20266;-73
2022/07/30 04:17:54;;;;;;;4.97;2.53;;;;;;;17.51;72.64;92974.59;2067796;69;20217;-72
2022/07/30 04:20:28;;;;;;;2.53;2.05;;;;;;;17.60;71.31;92975.63;2068454;69;20155;-72
2022/07/30 04:22:56;;;;;;;5.15;2.67;;;;;;;17.48;72.58;92981.56;2071742;69;20156;-72
2022/07/30 04:25:23;;;;;;;5.72;2.40;;;;;;;17.49;73.30;92983.03;2065420;69;20160;-73
2022/07/30 04:27:49;;;;;;;6.43;2.58;;;;;;;17.41;73.43;92984.81;2066882;69;20571;-73
2022/07/30 04:30:15;;;;;;;4.97;2.42;;;;;;;17.35;72.65;92985.31;2071770;69;20160;-72
2022/07/30 04:32:42;;;;;;;6.45;2.70;;;;;;;17.11;75.32;92993.59;2068386;69;20140;-74
2022/07/30 04:35:28;;;;;;;2.97;2.40;;;;;;;17.34;73.53;93000.94;2069027;69;20609;-74
2022/07/30 04:38:12;;;;;;;5.18;2.30;;;;;;;17.42;73.38;93000.53;2067843;69;20178;-75
2022/07/30 04:40:39;;;;;;;3.10;2.55;;;;;;;17.49;72.05;93002.22;2068092;69;20227;-75
2022/07/30 04:43:05;;;;;;;6.25;2.97;;;;;;;17.59;73.32;93001.88;2067831;69;20195;-75
2022/07/30 04:45:34;;;;;;;6.28;2.28;;;;;;;17.58;72.56;93006.84;2068081;69;20208;-74
2022/07/30 04:48:01;;;;;;;3.53;2.30;;;;;;;17.62;72.48;93009.13;2067704;69;20144;-75
2022/07/30 04:50:49;;;;;;;3.53;2.30;;;;;;;17.70;72.68;93015.16;2071320;69;20274;-75
2022/07/30 04:53:18;;;;;;;4.40;2.60;;;;;;;17.69;72.42;93010.84;2067970;69;20164;-74
2022/07/30 04:55:52;;;;;;;3.20;2.47;;;;;;;17.78;71.94;93004.84;2067907;69;20148;-74
2022/07/30 04:58:22;;;;;;;7.55;3.35;;;;;;;17.82;71.19;93006.38;2067783;69;20144;-74
2022/07/30 05:00:50;;;;;;;6.65;2.90;;;;;;;17.74;72.10;93007.53;2067883;69;20148;-74
2022/07/30 05:03:22;;;;;;;6.63;3.25;;;;;;;17.44;72.23;93006.28;2067853;69;20184;-74
2022/07/30 05:05:52;;;;;;;6.70;2.55;;;;;;;17.72;70.79;93001.00;2067909;69;20156;-75
2022/07/30 05:08:18;;;;;;;3.25;2.50;;;;;;;17.60;70.93;93001.25;2071071;69;20171;-74
2022/07/30 05:10:45;;;;;;;3.28;2.20;;;;;;;17.60;71.67;93000.53;2071363;69;20157;-74
2022/07/30 05:13:12;;;;;;;4.32;2.70;;;;;;;17.57;72.39;93005.41;2071233;69;20174;-75
2022/07/30 05:15:39;;;;;;;7.40;2.92;;;;;;;17.51;73.61;93005.88;2068054;69;20133;-75
2022/07/30 05:18:07;;;;;;;9.05;2.22;;;;;;;17.65;72.76;93002.88;2067517;69;20175;-75
2022/07/30 05:20:36;;;;;;;4.45;2.60;;;;;;;17.74;72.17;93003.97;2067899;69;20231;-74
2022/07/30 05:23:14;;;;;;;5.15;2.10;;;;;;;17.78;70.04;93006.97;2067888;69;20570;-74
2022/07/30 05:25:45;;;;;;;5.45;2.60;;;;;;;17.72;71.25;93007.41;2068095;69;20140;-75
2022/07/30 05:28:16;;;;;;;5.47;2.67;;;;;;;17.74;72.03;93004.69;2067722;69;20148;-74
2022/07/30 05:30:43;;;;;;;3.50;2.50;;;;;;;17.92;69.99;93010.34;2067978;69;20167;-75
2022/07/30 05:33:13;;;;;;;5.25;2.90;;;;;;;18.00;71.50;93013.50;2067338;69;20180;-75
2022/07/30 05:35:39;;;;;;;3.17;2.67;;;;;;;17.67;72.75;93013.59;2067952;69;20576;-74
2022/07/30 05:38:05;;;;;;;2.63;2.40;;;;;;;17.80;69.86;93017.69;2064492;69;20149;-75
2022/07/30 05:40:41;;;;;;;5.97;2.92;;;;;;;17.82;71.49;93017.75;2070686;69;20193;-74
2022/07/30 05:43:26;;;;;;;5.20;2.60;;;;;;;17.86;70.35;93015.06;2070965;69;20167;-74
2022/07/30 05:45:52;;;;;;;3.55;2.80;;;;;;;17.85;69.88;93013.63;2067726;69;20206;-74
2022/07/30 05:48:17;;;;;;;6.60;3.00;;;;;;;18.01;69.20;93020.69;2067692;69;20560;-74
2022/07/30 05:50:44;;;;;;;6.75;3.47;;;;;;;17.94;69.44;93021.09;2067763;69;20156;-74
2022/07/30 05:53:09;;;;;;;5.72;3.03;;;;;;;17.92;71.06;93026.72;2070849;69;20144;-74
2022/07/30 05:55:58;;;;;;;5.28;2.80;;;;;;;17.96;69.33;93035.41;2063671;69;20630;-74
2022/07/30 05:58:42;;;;;;;5.15;3.30;;;;;;;17.75;71.30;93033.88;2071138;69;20201;-73
2022/07/30 06:01:10;;;;;;;7.00;3.30;;;;;;;17.73;71.73;93039.47;2067642;69;20171;-75
2022/07/30 06:03:36;;;;;;;6.15;2.88;;;;;;;17.91;70.20;93040.22;2067545;69;20535;-75
2022/07/30 06:06:21;;;;;;;7.68;2.90;;;;;;;17.97;71.32;93051.84;2070981;69;20188;-74
2022/07/30 06:08:48;;;;;;;6.85;2.78;;;;;;;17.85;72.70;93057.06;2067808;69;20558;-75
2022/07/30 06:11:14;;;;;;;5.40;2.83;;;;;;;17.88;72.27;93058.63;2067816;69;20144;-75
2022/07/30 06:13:41;;;;;;;5.55;2.70;;;;;;;17.78;72.53;93058.22;2067527;69;20163;-75
2022/07/30 06:16:06;;;;;;;6.93;3.45;;;;;;;17.80;73.59;93061.13;2067669;69;20159;-75
2022/07/30 06:18:33;;;;;;;4.70;2.85;;;;;;;17.67;74.24;93073.38;2067578;69;20241;-75
2022/07/30 06:21:01;;;;;;;5.25;2.90;;;;;;;17.82;73.09;93072.59;2067790;69;20174;-75
2022/07/30 06:24:05;;;;;;;6.47;3.50;;;;;;;17.89;72.18;93065.78;2066380;69;20287;-75
2022/07/30 06:26:39;;;;;;;7.38;4.70;;;;;;;17.90;72.47;93075.78;2071191;69;20559;-75
2022/07/30 06:29:06;;;;;;;9.23;4.25;;;;;;;17.78;72.71;93067.50;2067492;69;20615;-75
2022/07/30 06:31:32;;;;;;;6.30;3.72;;;;;;;17.73;72.35;93070.78;2064595;69;20152;-75
2022/07/30 06:34:00;;;;;;;5.70;3.80;;;;;;;17.74;72.95;93080.84;2067410;69;20264;-75
2022/07/30 06:36:31;;;;;;;11.43;4.13;;;;;;;17.73;72.90;93067.94;2067458;69;20136;-75
2022/07/30 06:39:03;;;;;;;9.00;3.97;;;;;;;17.65;73.02;93068.34;2067532;69;20175;-74
2022/07/30 06:41:54;;;;;;;5.75;3.45;;;;;;;17.86;71.05;93069.19;2068397;69;20167;-74
2022/07/30 06:44:20;;;;;;;5.97;3.70;;;;;;;17.68;73.01;93058.50;2067699;69;20171;-74
2022/07/30 06:46:48;;;;;;;4.85;3.40;;;;;;;17.71;72.89;93071.44;2071138;69;20259;-75
2022/07/30 06:49:16;;;;;;;6.40;3.85;;;;;;;17.76;72.38;93078.06;2067611;69;20144;-74
2022/07/30 06:51:41;;;;;;;9.48;3.97;;;;;;;17.71;72.32;93079.25;2071088;69;20699;-73
2022/07/30 06:54:07;;;;;;;7.57;3.50;;;;;;;17.69;73.20;93082.75;2067477;69;20585;-72
2022/07/30 06:56:36;;;;;;;9.30;4.50;;;;;;;17.37;74.90;93089.97;2070782;69;20190;-73
2022/07/30 06:59:03;;;;;;;8.40;3.90;;;;;;;17.80;71.75;93089.63;2064425;69;20230;-74
2022/07/30 07:01:49;;;;;;;7.47;3.45;;;;;;;17.76;73.64;93093.03;2068231;69;20209;-74
2022/07/30 07:04:24;;;;;;;4.72;3.40;;;;;;;17.85;72.51;93099.06;2067202;69;20148;-74
2022/07/30 07:06:49;;;;;;;4.13;3.15;;;;;;;17.96;70.98;93098.06;2071212;69;20549;-75
2022/07/30 07:09:24;;;;;;;7.10;3.40;;;;;;;17.92;72.58;93104.34;2067526;69;20168;-74
2022/07/30 07:12:07;;;;;;;4.75;3.53;;;;;;;17.91;73.63;93105.72;2066944;69;20164;-74
2022/07/30 07:14:33;;;;;;;7.20;3.85;;;;;;;17.88;73.90;93101.34;2066118;69;20600;-73
2022/07/30 07:16:59;;;;;;;5.07;3.30;;;;;;;17.98;73.67;93098.88;2067007;69;20175;-75
2022/07/30 07:19:45;;;;;;;8.13;3.80;;;;;;;17.81;73.89;93096.75;2066136;69;20525;-73
2022/07/30 07:22:12;;;;;;;6.00;3.33;;;;;;;17.99;73.00;93102.47;2066906;69;20156;-74
2022/07/30 07:24:39;;;;;;;5.38;3.60;;;;;;;18.09;72.76;93099.28;2066672;69;20156;-72
2022/07/30 07:27:07;;;;;;;4.82;3.30;;;;;;;18.31;71.99;93096.56;2064199;69;20153;-74
2022/07/30 07:29:33;;;;;;;7.43;3.53;;;;;;;18.37;71.38;93100.41;2066852;69;20179;-74
2022/07/30 07:32:01;;;;;;;7.80;4.00;;;;;;;18.10;73.49;93103.59;2066798;69;20213;-73
2022/07/30 07:34:26;;;;;;;6.03;3.83;;;;;;;17.95;74.26;93102.28;2066659;69;20161;-74
2022/07/30 07:36:52;;;;;;;8.18;3.65;;;;;;;18.34;72.03;93098.13;2067098;69;20160;-74
2022/07/30 07:39:19;;;;;;;7.82;4.20;;;;;;;18.39;74.00;93103.31;2066744;69;20152;-74
2022/07/30 07:41:45;;;;;;;6.60;4.00;;;;;;;18.42;73.93;93107.00;2066867;69;20153;-74
2022/07/30 07:44:11;;;;;;;6.10;4.00;;;;;;;18.50;72.00;93104.44;2067596;69;20626;-74
2022/07/30 07:46:37;;;;;;;46.45;5.65;;;;;;;18.33;72.22;93111.66;2067638;69;20148;-74
2022/07/30 07:49:04;;;;;;;6.40;3.80;;;;;;;18.39;72.16;93114.00;2067491;69;20149;-74
2022/07/30 07:51:37;;;;;;;4.95;3.80;;;;;;;18.48;73.56;93116.50;2067597;69;20587;-75
2022/07/30 07:54:04;;;;;;;5.40;3.53;;;;;;;18.48;74.62;93110.06;2067232;69;20157;-74
2022/07/30 07:56:31;;;;;;;4.88;3.47;;;;;;;18.54;73.50;93121.69;2066682;69;20145;-74
2022/07/30 07:58:57;;;;;;;7.10;3.10;;;;;;;18.50;73.70;93115.81;2067425;69;20192;-74
2022/07/30 08:01:23;;;;;;;3.97;2.95;;;;;;;18.50;74.67;93115.81;2067500;69;20187;-74
2022/07/30 08:04:12;;;;;;;3.88;3.20;;;;;;;18.53;71.85;93114.53;2066024;69;20168;-74
2022/07/30 08:06:56;;;;;;;14.32;3.97;;;;;;;18.52;72.60;93119.50;2067689;69;20148;-75
2022/07/30 08:09:40;;;;;;;9.15;4.38;;;;;;;17.74;75.50;93124.28;2067721;69;20352;-73
2022/07/30 08:12:21;;;;;;;7.68;4.40;;;;;;;17.83;75.16;93116.78;2067306;69;20155;-74
2022/07/30 08:15:06;;;;;;;6.22;3.95;;;;;;;18.19;73.33;93119.63;2068124;69;20206;-75
2022/07/30 08:17:32;;;;;;;7.15;4.07;;;;;;;18.33;73.67;93120.19;2067307;69;20167;-74
2022/07/30 08:20:21;;;;;;;5.85;4.28;;;;;;;18.49;73.26;93125.78;2066730;69;20167;-76
2022/07/30 08:22:47;;;;;;;5.85;4.32;;;;;;;18.60;73.36;93124.03;2067300;69;20183;-75
2022/07/30 08:25:14;;;;;;;6.10;4.55;;;;;;;18.61;72.66;93116.97;2067168;69;20246;-75
2022/07/30 08:27:39;;;;;;;6.78;4.10;;;;;;;18.76;72.30;93116.84;2067546;69;20592;-75
2022/07/30 08:30:07;;;;;;;6.25;3.72;;;;;;;19.08;72.09;93119.44;2067457;69;20187;-75
2022/07/30 08:32:34;;;;;;;7.40;4.20;;;;;;;19.13;72.67;93121.03;2067222;69;20148;-76
2022/07/30 08:35:03;;;;;;;5.50;3.65;;;;;;;19.20;70.26;93122.00;2067746;69;20137;-76
2022/07/30 08:37:30;;;;;;;6.63;3.88;;;;;;;19.17;67.95;93120.44;2067527;69;20188;-76
2022/07/30 08:39:56;;;;;;;4.72;3.78;;;;;;;19.24;66.76;93111.44;2067580;69;20148;-76
2022/07/30 08:42:22;;;;;;;5.70;3.88;;;;;;;19.26;68.24;93117.22;2068377;69;20201;-76
2022/07/30 08:44:50;;;;;;;5.20;4.13;;;;;;;19.61;69.14;93109.88;2067555;69;20180;-74
2022/07/30 08:47:17;;;;;;;4.03;3.40;;;;;;;19.82;69.53;93111.28;2067415;69;20217;-75
2022/07/30 08:50:22;;;;;;;5.30;3.50;;;;;;;20.82;70.48;93114.41;2064968;69;20237;-75
2022/07/30 08:53:13;;;;;;;5.75;3.50;;;;;;;20.89;67.77;93121.78;2067304;69;20235;-75
2022/07/30 08:55:40;;;;;;;4.18;3.25;;;;;;;21.61;64.89;93113.03;2067496;69;20141;-75
2022/07/30 08:58:32;;;;;;;4.22;2.85;;;;;;;21.50;60.62;93108.44;2064898;69;20160;-73
2022/07/30 09:00:58;;;;;;;4.32;2.88;;;;;;;21.63;60.28;93107.38;2067590;69;20149;-73
2022/07/30 09:03:27;;;;;;;3.10;2.70;;;;;;;22.23;59.66;93112.47;2067375;69;20480;-75
2022/07/30 09:05:56;;;;;;;3.45;2.83;;;;;;;21.48;59.25;93111.25;2067469;69;20164;-74
2022/07/30 09:08:22;;;;;;;3.10;2.80;;;;;;;21.54;58.23;93115.03;2064817;69;20194;-75
2022/07/30 09:10:49;;;;;;;3.28;2.42;;;;;;;22.20;58.53;93113.81;2067446;69;20603;-73
2022/07/30 09:13:33;;;;;;;4.47;3.10;;;;;;;23.08;59.03;93110.78;2067319;69;20186;-73
2022/07/30 09:16:00;;;;;;;4.88;2.50;;;;;;;23.57;54.38;93115.34;2067532;69;20569;-72
2022/07/30 09:18:39;;;;;;;2.63;2.30;;;;;;;23.24;56.17;93102.50;2067246;69;20144;-73
2022/07/30 09:21:28;;;;;;;3.97;2.60;;;;;;;23.63;56.17;93103.22;2067439;69;20231;-74
2022/07/30 09:24:22;;;;;;;3.10;2.30;;;;;;;23.94;49.90;93101.66;2067425;69;20572;-74
2022/07/30 09:27:20;;;;;;;6.07;2.40;;;;;;;24.69;51.75;93096.38;2063606;69;20190;-74
2022/07/30 09:29:57;;;;;;;2.95;2.28;;;;;;;24.74;50.72;93100.81;2067446;69;20160;-74
2022/07/30 09:32:55;;;;;;;;;;;;;;;24.26;51.99;93092.84;2068098;69;20648;-75
2022/07/30 09:36:00;;;;;;;3.15;2.15;;;;;;;24.27;50.59;93093.56;2062582;69;20119;-75
2022/07/30 09:38:52;;;;;;;4.03;2.40;;;;;;;24.14;50.57;93094.78;2067916;69;20203;-75
2022/07/30 09:41:37;;;;;;;5.00;2.33;;;;;;;24.04;55.48;93098.22;2067976;69;20152;-76
2022/07/30 09:44:22;;;;;;;3.35;2.60;;;;;;;23.78;53.80;93099.25;2067359;69;20159;-75
2022/07/30 09:46:50;;;;;;;4.28;2.40;;;;;;;23.76;56.31;93096.31;2067416;69;20204;-74
2022/07/30 09:49:26;;;;;;;3.15;2.25;;;;;;;23.58;56.35;93098.84;2067207;69;20157;-75
2022/07/30 09:51:54;;;;;;;3.03;2.30;;;;;;;23.65;56.33;93091.81;2067359;69;20152;-75
2022/07/30 09:54:19;;;;;;;4.15;2.33;;;;;;;23.60;57.43;93098.88;2067347;69;20239;-74
2022/07/30 09:56:46;;;;;;;3.97;2.50;;;;;;;23.84;57.75;93098.63;2067289;69;20496;-74
2022/07/30 09:59:28;;;;;;;5.03;2.75;;;;;;;24.49;59.34;93099.72;2067258;69;20559;-75
2022/07/30 10:01:55;;;;;;;4.63;2.70;;;;;;;24.82;54.84;93080.75;2067290;69;20160;-74
2022/07/30 10:04:40;;;;;;;3.65;2.20;;;;;;;23.54;51.89;93081.50;2067517;69;20411;-74
2022/07/30 10:07:18;;;;;;;3.58;2.50;;;;;;;23.63;51.69;93073.78;2067236;69;20145;-74
2022/07/30 10:09:47;;;;;;;4.03;2.33;;;;;;;23.87;49.95;93082.88;2067732;69;20156;-75
2022/07/30 10:12:14;;;;;;;3.25;2.30;;;;;;;24.82;51.03;93074.97;2067192;69;20243;-74
2022/07/30 10:14:48;;;;;;;2.78;2.45;;;;;;;25.66;48.10;93072.38;2067442;69;20299;-75
2022/07/30 10:17:17;;;;;;;3.70;2.50;;;;;;;24.92;47.00;93068.63;2067149;69;20198;-76
2022/07/30 10:20:13;;;;;;;4.53;2.45;;;;;;;25.47;46.64;93068.59;2064996;69;20246;-73
2022/07/30 10:23:06;;;;;;;2.75;2.30;;;;;;;25.95;45.67;93068.41;2062544;69;20508;-73
2022/07/30 10:25:56;;;;;;;2.17;1.95;;;;;;;25.26;44.15;93053.25;2067811;69;20644;-75
2022/07/30 10:28:42;;;;;;;2.70;1.98;;;;;;;26.49;43.72;93050.09;2067918;69;20147;-75
2022/07/30 10:31:08;;;;;;;3.33;1.83;;;;;;;26.80;42.22;93053.91;2068114;69;20232;-75
2022/07/30 10:33:34;;;;;;;5.90;2.00;;;;;;;27.01;39.58;93046.06;2067345;69;20203;-74
2022/07/30 10:35:59;;;;;;;2.42;1.70;;;;;;;27.18;40.00;93043.28;2068036;69;20527;-75
2022/07/30 10:38:31;;;;;;;2.20;1.65;;;;;;;28.14;39.01;93049.28;2068052;69;20148;-75
2022/07/30 10:41:14;;;;;;;2.80;1.70;;;;;;;27.96;36.13;93047.84;2067933;69;20139;-75
2022/07/30 10:43:58;;;;;;;3.20;1.70;;;;;;;29.57;34.79;93050.47;2067959;69;20308;-75
2022/07/30 10:46:30;;;;;;;3.08;1.83;;;;;;;27.99;35.12;93052.16;2067856;69;20168;-75
2022/07/30 10:49:24;;;;;;;4.03;1.50;;;;;;;27.74;37.31;93045.63;2067781;69;20240;-75
2022/07/30 10:51:53;;;;;;;3.38;1.77;;;;;;;27.61;38.03;93041.94;2067836;69;20243;-75
2022/07/30 10:54:39;;;;;;;2.25;1.80;;;;;;;28.41;38.01;93044.22;2067815;69;20148;-75
2022/07/30 10:57:11;;;;;;;4.07;1.80;;;;;;;28.13;38.92;93045.66;2066883;69;20612;-74
2022/07/30 10:59:57;;;;;;;4.07;1.83;;;;;;;27.87;38.49;93046.38;2067587;69;20209;-74
2022/07/30 11:02:28;;;;;;;4.55;1.80;;;;;;;27.87;39.14;93040.59;2067321;69;20252;-75
2022/07/30 11:05:18;;;;;;;3.10;1.90;;;;;;;27.33;40.32;93047.66;2066459;69;20281;-75
2022/07/30 11:07:47;;;;;;;2.53;1.65;;;;;;;26.99;40.52;93040.28;2067316;69;20183;-73
2022/07/30 11:10:37;;;;;;;2.92;1.70;;;;;;;26.83;43.91;93046.69;2067510;69;20148;-72
2022/07/30 11:13:05;;;;;;;5.43;2.03;;;;;;;26.74;47.60;93050.97;2069725;69;20180;-73
2022/07/30 11:15:55;;;;;;;2.22;1.70;;;;;;;26.73;45.61;93051.69;2067390;69;20510;-73
2022/07/30 11:18:25;;;;;;;2.67;2.00;;;;;;;26.55;46.55;93055.91;2070990;69;20227;-74
2022/07/30 11:21:14;;;;;;;3.72;2.00;;;;;;;26.52;47.75;93060.19;2071314;69;20167;-73
2022/07/30 11:23:41;;;;;;;2.22;1.70;;;;;;;26.41;47.69;93055.06;2071349;69;20221;-76
2022/07/30 11:26:08;;;;;;;3.08;1.90;;;;;;;26.38;47.42;93048.53;2067895;69;20251;-73
2022/07/30 11:28:38;;;;;;;2.88;1.80;;;;;;;26.16;48.66;93054.88;2071489;69;20141;-75
2022/07/30 11:31:24;;;;;;;3.47;2.00;;;;;;;26.67;48.40;93057.44;2071539;69;20152;-73
2022/07/30 11:33:50;;;;;;;2.67;1.90;;;;;;;28.85;44.91;93055.03;2071016;69;20184;-74
2022/07/30 11:36:16;;;;;;;3.80;1.92;;;;;;;28.86;42.82;93048.53;2071376;69;20186;-74
2022/07/30 11:38:58;;;;;;;2.83;1.90;;;;;;;34.88;33.08;93046.22;2071360;69;20239;-74
2022/07/30 11:41:24;;;;;;;3.88;2.10;;;;;;;34.13;31.72;93048.75;2071192;69;20616;-74
2022/07/30 11:44:25;;;;;;;3.17;2.05;;;;;;;37.07;26.86;93055.19;2071166;69;20491;-74
2022/07/30 11:46:51;;;;;;;2.78;1.83;;;;;;;34.62;28.53;93041.03;2071036;69;20128;-76
2022/07/30 11:49:17;;;;;;;3.22;1.58;;;;;;;32.25;30.86;93031.09;2071292;69;20249;-75
2022/07/30 11:51:45;;;;;;;2.33;1.70;;;;;;;31.09;33.42;93029.69;2070432;69;20173;-75
2022/07/30 11:54:11;;;;;;;3.90;1.60;;;;;;;30.33;35.42;93018.81;2070411;69;20156;-74
2022/07/30 11:56:47;;;;;;;2.90;1.75;;;;;;;30.17;38.26;93021.13;2070542;69;20494;-74